Time;durP1;ratioP1;P1;durP2;ratioP2;P2;SDS_P1;SDS_P2;PMS_P1;PMS_P2;Temp;Humidity;BMP_temperature;BMP_pressure;BME280_temperature;BME280_humidity;BME280_pressure;Samples;Min_cycle;Max_cycle;Signal;HPM_P1;HPM_P2
2023/10/18 05:02:38;;;;;;;51.47;21.80;;;;;;;;;;4975576;23;20499;-67
2023/10/18 05:05:10;;;;;;;38.00;18.67;;;;;;;;;;4976991;28;20419;-66
2023/10/18 05:07:41;;;;;;;47.70;20.47;;;;;;;;;;4977792;28;20412;-66
2023/10/18 05:10:14;;;;;;;46.30;21.73;;;;;;;;;;4978339;28;20403;-66
2023/10/18 05:12:47;;;;;;;37.40;18.87;;;;;;;;;;4977394;28;20422;-66
2023/10/18 05:15:18;;;;;;;38.17;18.57;;;;;;;;;;4977477;28;20459;-68
2023/10/18 05:17:44;;;;;;;35.93;17.20;;;;;;;;;;4977555;28;20495;-68
2023/10/18 05:22:49;;;;;;;39.53;17.57;;;;;;;;;;4977713;28;20415;-68
2023/10/18 05:27:45;;;;;;;51.30;21.00;;;;;;;;;;4978444;28;20412;-68
2023/10/18 05:30:26;;;;;;;29.70;16.33;;;;;;;;;;4994178;28;20439;-66
2023/10/18 05:35:28;;;;;;;42.03;19.37;;;;;;;;;;4994441;28;20470;-67
2023/10/18 05:38:06;;;;;;;48.53;22.13;;;;;;;;;;4993420;28;20430;-65
2023/10/18 05:43:07;;;;;;;43.63;19.90;;;;;;;;;;4983942;28;20419;-65
2023/10/18 05:45:40;;;;;;;33.27;17.40;;;;;;;;;;4980312;28;20435;-66
2023/10/18 05:48:31;;;;;;;45.93;20.70;;;;;;;;;;4987540;28;20446;-65
2023/10/18 05:51:01;;;;;;;38.90;20.40;;;;;;;;;;4985123;28;20843;-67
2023/10/18 05:53:28;;;;;;;41.53;20.40;;;;;;;;;;4979182;28;20403;-67
2023/10/18 05:55:54;;;;;;;51.30;23.93;;;;;;;;;;4977468;28;20426;-66
2023/10/18 05:58:32;;;;;;;46.30;21.53;;;;;;;;;;4977155;28;20443;-66
2023/10/18 06:00:58;;;;;;;43.50;18.80;;;;;;;;;;4977905;28;20950;-67
2023/10/18 06:03:38;;;;;;;50.13;22.63;;;;;;;;;;4977385;28;20428;-68
2023/10/18 06:06:04;;;;;;;42.30;19.00;;;;;;;;;;4977543;28;20408;-66
2023/10/18 06:08:31;;;;;;;46.80;21.07;;;;;;;;;;4976540;28;20412;-67
2023/10/18 06:11:00;;;;;;;43.93;19.63;;;;;;;;;;4976262;28;20541;-67
2023/10/18 06:13:30;;;;;;;40.60;18.93;;;;;;;;;;4978930;28;20494;-66
2023/10/18 06:15:58;;;;;;;43.07;20.07;;;;;;;;;;4980376;28;20571;-67
2023/10/18 06:18:31;;;;;;;40.50;21.07;;;;;;;;;;4977644;28;20455;-67
2023/10/18 06:20:59;;;;;;;46.87;20.10;;;;;;;;;;4977065;28;20577;-67
2023/10/18 06:25:58;;;;;;;47.63;20.87;;;;;;;;;;4977059;28;20867;-67
2023/10/18 06:28:25;;;;;;;49.87;21.93;;;;;;;;;;4976204;28;20420;-66
2023/10/18 06:30:56;;;;;;;40.13;19.57;;;;;;;;;;4975963;28;20957;-66
2023/10/18 06:33:22;;;;;;;53.83;21.73;;;;;;;;;;4976028;28;20721;-67
2023/10/18 06:35:52;;;;;;;41.07;21.70;;;;;;;;;;4975443;28;20466;-66
2023/10/18 06:38:22;;;;;;;46.33;20.33;;;;;;;;;;4975418;28;20415;-66
2023/10/18 06:40:59;;;;;;;40.90;19.30;;;;;;;;;;4975168;28;20436;-67
2023/10/18 06:43:25;;;;;;;48.13;22.30;;;;;;;;;;4974313;28;20416;-66
2023/10/18 06:45:53;;;;;;;44.60;21.20;;;;;;;;;;4975289;28;20420;-66
2023/10/18 06:48:19;;;;;;;40.37;19.87;;;;;;;;;;4974984;28;20419;-66
2023/10/18 06:50:46;;;;;;;40.63;18.40;;;;;;;;;;4975353;28;20435;-66
2023/10/18 06:53:15;;;;;;;35.03;19.40;;;;;;;;;;4975388;28;20471;-67
2023/10/18 06:55:45;;;;;;;40.67;17.87;;;;;;;;;;4975187;28;20463;-67
2023/10/18 06:58:41;;;;;;;47.10;18.80;;;;;;;;;;4973775;28;20957;-67
2023/10/18 07:01:08;;;;;;;40.43;19.50;;;;;;;;;;4975289;28;20467;-68
2023/10/18 07:03:34;;;;;;;45.40;22.60;;;;;;;;;;4975191;28;20551;-68
2023/10/18 07:06:19;;;;;;;42.20;19.17;;;;;;;;;;4975513;28;20490;-67
2023/10/18 07:08:45;;;;;;;51.80;20.00;;;;;;;;;;4975153;28;20415;-67
2023/10/18 07:11:18;;;;;;;36.07;19.67;;;;;;;;;;4975781;28;20456;-67
2023/10/18 07:13:47;;;;;;;38.40;20.53;;;;;;;;;;4975375;28;20408;-67
2023/10/18 07:16:18;;;;;;;46.13;21.63;;;;;;;;;;4974784;28;20482;-66
2023/10/18 07:18:44;;;;;;;46.27;19.27;;;;;;;;;;4975248;28;20406;-67
2023/10/18 07:21:11;;;;;;;42.77;20.70;;;;;;;;;;4975046;28;21079;-66
2023/10/18 07:23:37;;;;;;;46.63;20.40;;;;;;;;;;4974983;28;20770;-67
2023/10/18 07:26:07;;;;;;;38.73;19.53;;;;;;;;;;4974825;28;20404;-67
2023/10/18 07:28:35;;;;;;;39.73;19.90;;;;;;;;;;4974697;28;20400;-67
2023/10/18 07:31:01;;;;;;;37.40;19.87;;;;;;;;;;4973046;28;20436;-67
2023/10/18 07:33:28;;;;;;;40.73;20.23;;;;;;;;;;4974118;28;20979;-67
2023/10/18 07:35:55;;;;;;;34.17;18.43;;;;;;;;;;4973132;28;20419;-66
2023/10/18 07:38:27;;;;;;;34.83;17.60;;;;;;;;;;4974087;28;20484;-66
2023/10/18 07:40:57;;;;;;;39.97;19.30;;;;;;;;;;4974357;28;20415;-66
2023/10/18 07:43:25;;;;;;;37.70;18.00;;;;;;;;;;4974274;28;20407;-66
2023/10/18 07:45:55;;;;;;;39.93;19.60;;;;;;;;;;4973876;28;20411;-67
2023/10/18 07:48:22;;;;;;;38.40;17.67;;;;;;;;;;4973873;28;20779;-66
2023/10/18 07:50:51;;;;;;;37.53;18.63;;;;;;;;;;4973750;28;20427;-66
2023/10/18 07:53:24;;;;;;;37.70;20.00;;;;;;;;;;4974059;28;20410;-66
2023/10/18 07:55:56;;;;;;;33.07;17.50;;;;;;;;;;4974200;28;20451;-66
2023/10/18 07:58:26;;;;;;;41.20;19.00;;;;;;;;;;4973899;28;20775;-65
2023/10/18 08:01:09;;;;;;;36.23;19.03;;;;;;;;;;4974109;28;20447;-67
2023/10/18 08:03:35;;;;;;;36.37;18.73;;;;;;;;;;4974237;28;20843;-67
2023/10/18 08:06:07;;;;;;;36.30;17.27;;;;;;;;;;4974157;28;20403;-67
2023/10/18 08:08:36;;;;;;;37.07;18.73;;;;;;;;;;4972773;28;20494;-69
2023/10/18 08:11:05;;;;;;;38.57;20.70;;;;;;;;;;4973757;28;20428;-66
2023/10/18 08:13:31;;;;;;;39.10;20.15;;;;;;;;;;4975001;28;20416;-67
2023/10/18 08:16:01;;;;;;;33.70;18.40;;;;;;;;;;4974406;28;20915;-67
2023/10/18 08:18:42;;;;;;;32.37;19.00;;;;;;;;;;4972738;28;20539;-67
2023/10/18 08:21:18;;;;;;;32.83;18.67;;;;;;;;;;4974012;28;20469;-67
2023/10/18 08:23:44;;;;;;;37.30;19.20;;;;;;;;;;4974019;28;20443;-66
2023/10/18 08:26:12;;;;;;;39.50;18.90;;;;;;;;;;4973727;28;20416;-67
2023/10/18 08:28:38;;;;;;;33.00;18.10;;;;;;;;;;4973792;28;20430;-67
2023/10/18 08:31:26;;;;;;;36.27;18.30;;;;;;;;;;4973984;28;20435;-67
2023/10/18 08:33:54;;;;;;;30.13;15.90;;;;;;;;;;4972408;28;20490;-67
2023/10/18 08:36:29;;;;;;;30.33;15.70;;;;;;;;;;4974151;28;20947;-66
2023/10/18 08:38:55;;;;;;;37.00;16.30;;;;;;;;;;4972361;28;20420;-67
2023/10/18 08:41:22;;;;;;;26.83;16.37;;;;;;;;;;4973817;28;20802;-68
2023/10/18 08:43:48;;;;;;;29.93;17.23;;;;;;;;;;4974102;28;20412;-68
2023/10/18 08:46:14;;;;;;;33.23;17.73;;;;;;;;;;4973709;28;20825;-67
2023/10/18 08:48:42;;;;;;;34.30;17.90;;;;;;;;;;4973431;28;20411;-67
2023/10/18 08:51:09;;;;;;;28.73;16.57;;;;;;;;;;4973588;28;20440;-67
2023/10/18 08:53:41;;;;;;;28.43;15.17;;;;;;;;;;4973409;28;20408;-67
2023/10/18 08:56:08;;;;;;;40.30;17.47;;;;;;;;;;4973575;28;20416;-67
2023/10/18 08:58:35;;;;;;;31.90;17.37;;;;;;;;;;4973418;28;20506;-67
2023/10/18 09:03:27;;;;;;;28.87;17.50;;;;;;;;;;4973061;28;20424;-67
2023/10/18 09:06:04;;;;;;;26.33;14.20;;;;;;;;;;4973241;28;20435;-67
2023/10/18 09:08:35;;;;;;;31.10;16.90;;;;;;;;;;4973033;28;20427;-67
2023/10/18 09:11:04;;;;;;;28.30;16.30;;;;;;;;;;4977974;28;20950;-67
2023/10/18 09:13:33;;;;;;;30.93;16.37;;;;;;;;;;4975431;28;20420;-67
2023/10/18 09:16:04;;;;;;;25.53;14.13;;;;;;;;;;4973323;28;20408;-67
2023/10/18 09:18:34;;;;;;;23.93;14.20;;;;;;;;;;4973223;28;20475;-68
2023/10/18 09:23:42;;;;;;;26.00;16.10;;;;;;;;;;4973486;28;20450;-68
2023/10/18 09:26:10;;;;;;;30.80;16.97;;;;;;;;;;4973115;28;20510;-68
2023/10/18 09:28:37;;;;;;;25.63;15.30;;;;;;;;;;4972762;28;20407;-68
2023/10/18 09:31:10;;;;;;;26.83;15.53;;;;;;;;;;4972868;28;20961;-67
2023/10/18 09:33:48;;;;;;;31.63;17.13;;;;;;;;;;4972844;28;20411;-68
2023/10/18 09:36:24;;;;;;;31.03;16.00;;;;;;;;;;4971662;28;20424;-67
2023/10/18 09:38:52;;;;;;;30.10;17.27;;;;;;;;;;4975093;28;20548;-68
2023/10/18 09:41:18;;;;;;;28.90;16.27;;;;;;;;;;4976600;28;20431;-68
2023/10/18 09:43:46;;;;;;;27.70;16.30;;;;;;;;;;4976657;28;20907;-68
2023/10/18 09:46:13;;;;;;;28.70;16.40;;;;;;;;;;4976379;28;20411;-66
2023/10/18 09:48:46;;;;;;;29.53;17.10;;;;;;;;;;4976123;28;20408;-67
2023/10/18 09:51:16;;;;;;;30.37;16.43;;;;;;;;;;4977125;28;20431;-69
2023/10/18 09:53:42;;;;;;;34.50;16.50;;;;;;;;;;4976419;28;20400;-67
2023/10/18 09:56:09;;;;;;;29.00;16.90;;;;;;;;;;4977483;28;20404;-66
2023/10/18 09:58:41;;;;;;;30.40;16.93;;;;;;;;;;4975820;28;20462;-67
2023/10/18 10:01:13;;;;;;;29.37;15.93;;;;;;;;;;4976008;28;20497;-69
2023/10/18 10:03:56;;;;;;;27.03;16.83;;;;;;;;;;4976063;28;20412;-68
2023/10/18 10:06:26;;;;;;;29.00;16.27;;;;;;;;;;4975769;28;20408;-68
2023/10/18 10:08:55;;;;;;;25.63;14.70;;;;;;;;;;4975842;28;20496;-68
2023/10/18 10:11:22;;;;;;;39.03;15.83;;;;;;;;;;4975899;28;20470;-68
2023/10/18 10:13:49;;;;;;;39.13;15.17;;;;;;;;;;4975471;28;20412;-68
2023/10/18 10:16:18;;;;;;;27.57;14.37;;;;;;;;;;4975424;28;20427;-67
2023/10/18 10:18:47;;;;;;;24.23;14.00;;;;;;;;;;4976221;28;20459;-69
2023/10/18 10:21:15;;;;;;;25.80;15.40;;;;;;;;;;4976225;28;20443;-69
2023/10/18 10:23:41;;;;;;;24.73;14.27;;;;;;;;;;4975964;28;20412;-69
2023/10/18 10:26:11;;;;;;;24.57;15.40;;;;;;;;;;4975063;28;20756;-67
2023/10/18 10:31:52;;;;;;;26.47;15.33;;;;;;;;;;4976246;28;20843;-67
2023/10/18 10:34:26;;;;;;;21.53;12.53;;;;;;;;;;4975549;28;20459;-68
2023/10/18 10:36:53;;;;;;;22.77;13.43;;;;;;;;;;4975466;28;20507;-66
2023/10/18 10:39:30;;;;;;;24.10;14.70;;;;;;;;;;4975113;28;20404;-69
2023/10/18 10:42:01;;;;;;;26.20;14.23;;;;;;;;;;4975776;28;20438;-68
2023/10/18 10:44:38;;;;;;;22.20;13.13;;;;;;;;;;4975499;28;20504;-68
2023/10/18 10:47:29;;;;;;;23.80;14.20;;;;;;;;;;4975430;28;20431;-67
2023/10/18 10:49:58;;;;;;;26.43;14.77;;;;;;;;;;4974916;28;20428;-68
2023/10/18 10:52:29;;;;;;;22.70;13.47;;;;;;;;;;4975061;28;20486;-68
2023/10/18 10:55:01;;;;;;;26.70;14.97;;;;;;;;;;4975190;28;20469;-68
2023/10/18 10:57:29;;;;;;;29.93;15.23;;;;;;;;;;4975065;28;20422;-68
2023/10/18 10:59:57;;;;;;;22.93;13.37;;;;;;;;;;4974742;28;20418;-67
2023/10/18 11:02:40;;;;;;;21.93;13.53;;;;;;;;;;4974815;28;20905;-68
2023/10/18 11:05:16;;;;;;;21.70;13.10;;;;;;;;;;4975154;28;20419;-68
2023/10/18 11:07:43;;;;;;;20.70;13.13;;;;;;;;;;4975106;28;20411;-69
2023/10/18 11:10:15;;;;;;;17.90;10.90;;;;;;;;;;4974664;28;20934;-69
2023/10/18 11:12:41;;;;;;;17.90;11.57;;;;;;;;;;4974963;28;20420;-69
2023/10/18 11:15:16;;;;;;;16.97;10.53;;;;;;;;;;5006789;23;20505;-73
2023/10/18 11:17:44;;;;;;;12.77;9.20;;;;;;;;;;4974244;28;20435;-72
2023/10/18 11:20:29;;;;;;;17.07;10.37;;;;;;;;;;4974063;28;20441;-72
2023/10/18 11:22:56;;;;;;;20.43;10.77;;;;;;;;;;4974165;28;20396;-74
2023/10/18 11:25:30;;;;;;;26.40;12.07;;;;;;;;;;4973855;28;20435;-72
2023/10/18 11:28:10;;;;;;;21.83;13.17;;;;;;;;;;4973789;28;20415;-72
2023/10/18 11:30:37;;;;;;;21.57;11.23;;;;;;;;;;4973845;28;20404;-73
2023/10/18 11:33:03;;;;;;;20.40;13.23;;;;;;;;;;4973870;28;20462;-74
2023/10/18 11:38:12;;;;;;;22.90;12.37;;;;;;;;;;4973594;28;20934;-74
2023/10/18 11:40:41;;;;;;;25.23;12.90;;;;;;;;;;4973723;28;20549;-73
2023/10/18 11:43:07;;;;;;;18.30;12.70;;;;;;;;;;4973671;28;20824;-73
2023/10/18 11:45:33;;;;;;;24.37;12.83;;;;;;;;;;4973423;28;20467;-72
2023/10/18 11:48:02;;;;;;;19.03;11.13;;;;;;;;;;4973017;28;20614;-73
2023/10/18 11:50:47;;;;;;;19.47;11.30;;;;;;;;;;4973239;28;20525;-73
2023/10/18 11:53:14;;;;;;;17.97;10.30;;;;;;;;;;4973583;28;20414;-73
2023/10/18 11:55:56;;;;;;;25.53;11.73;;;;;;;;;;4973388;28;21004;-73
2023/10/18 11:58:25;;;;;;;19.17;9.00;;;;;;;;;;4973182;28;20414;-73
2023/10/18 12:01:01;;;;;;;12.27;8.17;;;;;;;;;;4973076;28;20791;-73
2023/10/18 12:03:27;;;;;;;12.80;7.83;;;;;;;;;;4973490;28;20848;-73
2023/10/18 12:05:57;;;;;;;18.63;9.00;;;;;;;;;;4974498;28;20415;-73
2023/10/18 12:08:23;;;;;;;14.37;8.60;;;;;;;;;;4973590;28;20420;-73
2023/10/18 12:10:49;;;;;;;11.07;6.90;;;;;;;;;;4973468;28;20459;-73
2023/10/18 12:13:20;;;;;;;11.93;7.53;;;;;;;;;;4973391;28;20508;-74
2023/10/18 12:15:45;;;;;;;12.23;7.90;;;;;;;;;;4972986;28;20634;-72
2023/10/18 12:18:14;;;;;;;11.73;7.20;;;;;;;;;;4955523;28;20439;-73
2023/10/18 12:20:43;;;;;;;12.00;7.73;;;;;;;;;;4973191;28;20432;-72
2023/10/18 12:23:10;;;;;;;11.33;7.57;;;;;;;;;;4973227;28;20418;-72
2023/10/18 12:25:42;;;;;;;13.27;6.90;;;;;;;;;;4973148;28;20412;-73
2023/10/18 12:28:12;;;;;;;12.90;7.30;;;;;;;;;;4973164;28;20510;-73
2023/10/18 12:30:39;;;;;;;8.87;6.70;;;;;;;;;;4973200;28;20451;-72
2023/10/18 12:33:14;;;;;;;15.40;7.97;;;;;;;;;;4973079;28;20791;-73
2023/10/18 12:35:41;;;;;;;13.13;7.27;;;;;;;;;;4973014;28;20463;-73
2023/10/18 12:38:20;;;;;;;14.23;7.67;;;;;;;;;;4973593;28;20490;-73
2023/10/18 12:40:54;;;;;;;14.07;6.73;;;;;;;;;;4972854;28;20396;-73
2023/10/18 12:43:21;;;;;;;10.50;6.90;;;;;;;;;;4973045;28;20492;-72
2023/10/18 12:45:50;;;;;;;18.30;7.43;;;;;;;;;;4973055;28;20755;-72
2023/10/18 12:48:21;;;;;;;13.60;7.83;;;;;;;;;;4972750;28;20510;-73
2023/10/18 12:50:50;;;;;;;13.03;7.30;;;;;;;;;;4973246;28;20807;-72
2023/10/18 12:55:58;;;;;;;13.83;7.03;;;;;;;;;;4974574;28;20517;-73
2023/10/18 12:58:28;;;;;;;15.50;8.47;;;;;;;;;;4972943;28;20411;-73
2023/10/18 13:01:05;;;;;;;16.90;8.70;;;;;;;;;;4973384;28;20427;-72
2023/10/18 13:03:34;;;;;;;12.40;7.73;;;;;;;;;;4972942;28;20442;-73
2023/10/18 13:06:00;;;;;;;15.43;8.23;;;;;;;;;;4972531;28;20430;-74
2023/10/18 13:08:26;;;;;;;15.33;8.13;;;;;;;;;;4954945;28;20519;-74
2023/10/18 13:13:35;;;;;;;22.20;11.70;;;;;;;;;;4974463;28;20549;-73
2023/10/18 13:16:01;;;;;;;27.93;11.40;;;;;;;;;;4976452;28;20467;-74
2023/10/18 13:18:27;;;;;;;20.67;10.87;;;;;;;;;;4976004;28;20407;-74
2023/10/18 13:21:05;;;;;;;18.97;10.57;;;;;;;;;;4974967;28;20419;-74
2023/10/18 13:23:31;;;;;;;20.37;8.97;;;;;;;;;;4976444;28;20431;-74
2023/10/18 13:25:57;;;;;;;15.60;9.90;;;;;;;;;;4976322;28;20415;-73
2023/10/18 13:28:33;;;;;;;14.40;8.80;;;;;;;;;;4976120;28;20470;-73
2023/10/18 13:31:04;;;;;;;20.23;9.90;;;;;;;;;;4976327;28;20774;-74
2023/10/18 13:33:31;;;;;;;16.03;9.00;;;;;;;;;;4975865;28;20431;-74
2023/10/18 13:35:57;;;;;;;17.63;9.33;;;;;;;;;;4975676;28;20554;-73
2023/10/18 13:38:23;;;;;;;20.17;8.77;;;;;;;;;;4975730;28;20495;-74
2023/10/18 13:40:50;;;;;;;19.43;9.10;;;;;;;;;;4975998;28;20470;-74
2023/10/18 13:43:17;;;;;;;19.93;9.40;;;;;;;;;;4975688;28;20880;-74
2023/10/18 13:45:46;;;;;;;15.80;8.63;;;;;;;;;;4975715;28;20430;-74
2023/10/18 13:48:12;;;;;;;14.80;8.97;;;;;;;;;;4975620;28;20412;-74
2023/10/18 13:50:38;;;;;;;15.50;7.10;;;;;;;;;;4976040;28;20780;-74
2023/10/18 13:53:05;;;;;;;16.47;7.27;;;;;;;;;;4975589;28;20420;-74
2023/10/18 13:55:31;;;;;;;8.07;5.73;;;;;;;;;;4975353;28;20467;-75
2023/10/18 13:57:57;;;;;;;11.03;6.00;;;;;;;;;;4975541;28;20412;-75
2023/10/18 14:00:24;;;;;;;9.23;6.10;;;;;;;;;;4958083;28;20419;-75
2023/10/18 14:02:53;;;;;;;9.40;5.63;;;;;;;;;;4975911;28;20495;-74
2023/10/18 14:05:21;;;;;;;17.17;6.10;;;;;;;;;;4975355;28;20440;-75
2023/10/18 14:07:47;;;;;;;9.67;6.30;;;;;;;;;;4957843;28;20895;-75
2023/10/18 14:10:28;;;;;;;13.03;5.60;;;;;;;;;;4975167;28;20451;-75
2023/10/18 14:12:54;;;;;;;11.73;6.53;;;;;;;;;;4975766;28;20418;-73
2023/10/18 14:15:20;;;;;;;13.33;6.77;;;;;;;;;;4975871;28;20517;-75
2023/10/18 14:17:47;;;;;;;15.27;7.30;;;;;;;;;;4975826;28;20412;-74
2023/10/18 14:20:13;;;;;;;10.73;6.73;;;;;;;;;;4991578;28;20416;-74
2023/10/18 14:22:41;;;;;;;10.50;6.53;;;;;;;;;;4991887;28;20412;-74
2023/10/18 14:25:13;;;;;;;11.83;6.57;;;;;;;;;;4984923;28;20435;-74
2023/10/18 14:27:40;;;;;;;12.73;7.13;;;;;;;;;;4975291;28;20404;-75
2023/10/18 14:30:10;;;;;;;14.63;7.67;;;;;;;;;;4975160;28;20414;-74
2023/10/18 14:32:36;;;;;;;14.10;7.73;;;;;;;;;;4975198;28;20843;-75
2023/10/18 14:35:02;;;;;;;17.67;7.97;;;;;;;;;;4974974;28;20491;-74
2023/10/18 14:37:28;;;;;;;20.00;9.03;;;;;;;;;;4975826;28;20466;-74
2023/10/18 14:39:57;;;;;;;20.00;9.80;;;;;;;;;;4975455;28;20404;-73
2023/10/18 14:42:28;;;;;;;16.97;9.47;;;;;;;;;;4976229;28;20495;-74
2023/10/18 14:44:54;;;;;;;18.80;10.40;;;;;;;;;;4977708;28;20482;-74
2023/10/18 14:47:20;;;;;;;20.13;11.17;;;;;;;;;;4981444;28;20412;-74
2023/10/18 14:49:46;;;;;;;16.97;10.70;;;;;;;;;;4980703;28;20420;-75
2023/10/18 14:52:12;;;;;;;22.53;12.30;;;;;;;;;;4980187;28;20895;-73
2023/10/18 14:54:41;;;;;;;17.93;10.13;;;;;;;;;;4975674;28;20521;-73
2023/10/18 14:57:07;;;;;;;19.70;11.43;;;;;;;;;;4974716;28;20424;-74
2023/10/18 14:59:33;;;;;;;21.03;10.47;;;;;;;;;;4974404;28;20408;-75
2023/10/18 15:01:59;;;;;;;18.00;10.37;;;;;;;;;;4974475;28;20470;-74
2023/10/18 15:04:26;;;;;;;19.23;11.37;;;;;;;;;;4974836;28;20774;-75
2023/10/18 15:06:53;;;;;;;21.50;12.40;;;;;;;;;;4974364;28;20411;-74
2023/10/18 15:09:20;;;;;;;19.50;11.43;;;;;;;;;;4974348;28;20502;-72
2023/10/18 15:11:49;;;;;;;19.47;11.20;;;;;;;;;;4974547;28;20919;-73
2023/10/18 15:14:15;;;;;;;27.30;11.47;;;;;;;;;;4974624;28;20475;-73
2023/10/18 15:16:41;;;;;;;21.23;10.63;;;;;;;;;;4974631;28;20407;-73
2023/10/18 15:19:07;;;;;;;19.80;12.07;;;;;;;;;;4974168;28;20507;-73
2023/10/18 15:21:34;;;;;;;17.10;11.17;;;;;;;;;;4974409;28;20977;-73
2023/10/18 15:24:00;;;;;;;16.33;11.10;;;;;;;;;;4974270;28;20443;-72
2023/10/18 15:26:29;;;;;;;18.13;11.70;;;;;;;;;;4974126;28;20848;-72
2023/10/18 15:28:56;;;;;;;21.87;11.93;;;;;;;;;;4973882;28;20432;-73
2023/10/18 15:31:22;;;;;;;20.90;11.30;;;;;;;;;;4974227;28;20418;-73
2023/10/18 15:33:48;;;;;;;17.90;10.80;;;;;;;;;;4974252;28;20518;-72
2023/10/18 15:36:18;;;;;;;24.57;11.47;;;;;;;;;;4973902;28;20428;-72
2023/10/18 15:38:44;;;;;;;19.90;11.83;;;;;;;;;;4974156;28;20794;-73
2023/10/18 15:41:11;;;;;;;26.13;13.37;;;;;;;;;;4974111;28;20562;-72
2023/10/18 15:43:43;;;;;;;24.00;12.17;;;;;;;;;;4973933;28;20436;-73
2023/10/18 15:46:09;;;;;;;20.43;11.47;;;;;;;;;;4973846;28;20420;-74
2023/10/18 15:48:35;;;;;;;23.37;10.53;;;;;;;;;;4973485;28;20420;-74
2023/10/18 15:51:01;;;;;;;16.77;11.10;;;;;;;;;;4973661;28;20411;-73
2023/10/18 15:53:28;;;;;;;20.57;12.00;;;;;;;;;;4973533;28;20703;-72
2023/10/18 15:55:54;;;;;;;28.63;13.57;;;;;;;;;;4973346;28;20522;-73
2023/10/18 15:58:20;;;;;;;22.93;13.10;;;;;;;;;;4973111;28;20404;-73
2023/10/18 16:00:46;;;;;;;21.40;12.03;;;;;;;;;;4973466;28;20904;-73
2023/10/18 16:03:13;;;;;;;28.13;14.30;;;;;;;;;;4973391;28;20938;-73
2023/10/18 16:05:39;;;;;;;26.43;14.03;;;;;;;;;;4973492;28;20408;-73
2023/10/18 16:08:05;;;;;;;31.70;12.97;;;;;;;;;;4973326;28;20482;-74
2023/10/18 16:10:31;;;;;;;28.83;13.50;;;;;;;;;;4973368;28;20411;-75
2023/10/18 16:12:58;;;;;;;30.00;14.67;;;;;;;;;;4973710;28;20506;-75
2023/10/18 16:15:24;;;;;;;34.03;15.20;;;;;;;;;;4974684;28;20558;-74
2023/10/18 16:17:53;;;;;;;33.87;15.50;;;;;;;;;;4974897;28;20876;-76
2023/10/18 16:20:19;;;;;;;36.03;16.97;;;;;;;;;;4973264;28;20848;-74
2023/10/18 16:22:45;;;;;;;39.47;16.93;;;;;;;;;;4973325;28;20448;-75
2023/10/18 16:25:12;;;;;;;38.70;19.10;;;;;;;;;;4973228;28;20475;-75
2023/10/18 16:27:38;;;;;;;30.80;17.00;;;;;;;;;;4973173;28;20877;-76
2023/10/18 16:30:05;;;;;;;30.87;16.87;;;;;;;;;;4973001;28;20896;-76
2023/10/18 16:32:32;;;;;;;32.60;16.90;;;;;;;;;;4972937;28;20416;-73
2023/10/18 16:34:58;;;;;;;38.90;17.27;;;;;;;;;;4972886;28;20464;-73
2023/10/18 16:37:27;;;;;;;41.83;17.50;;;;;;;;;;4972877;28;20828;-74
2023/10/18 16:39:53;;;;;;;32.37;17.37;;;;;;;;;;4972867;28;20408;-74
2023/10/18 16:42:19;;;;;;;24.90;14.17;;;;;;;;;;4973018;28;20434;-74
2023/10/18 16:44:46;;;;;;;29.00;16.20;;;;;;;;;;4973116;28;20939;-73
2023/10/18 16:47:14;;;;;;;39.23;18.17;;;;;;;;;;4975721;28;20780;-73
2023/10/18 16:49:40;;;;;;;30.63;15.57;;;;;;;;;;4979412;28;20435;-73
2023/10/18 16:52:06;;;;;;;29.40;16.77;;;;;;;;;;4979318;28;20467;-74
2023/10/18 16:54:33;;;;;;;37.27;18.17;;;;;;;;;;4979188;28;20467;-75
2023/10/18 16:56:59;;;;;;;33.03;17.57;;;;;;;;;;4979258;28;20482;-73
2023/10/18 16:59:25;;;;;;;38.93;20.43;;;;;;;;;;4979198;28;20843;-73
2023/10/18 17:01:51;;;;;;;31.53;16.97;;;;;;;;;;4979614;28;20444;-73
2023/10/18 17:04:17;;;;;;;35.53;19.00;;;;;;;;;;4979394;28;20923;-73
2023/10/18 17:06:44;;;;;;;37.40;18.43;;;;;;;;;;4979377;28;20419;-73
2023/10/18 17:09:16;;;;;;;37.90;20.57;;;;;;;;;;4979136;28;20412;-74
2023/10/18 17:11:43;;;;;;;31.70;17.13;;;;;;;;;;4979371;28;20411;-74
2023/10/18 17:14:14;;;;;;;39.40;17.90;;;;;;;;;;5001467;23;20546;-67
2023/10/18 17:16:40;;;;;;;36.70;18.33;;;;;;;;;;4979377;28;20487;-70
2023/10/18 17:19:08;;;;;;;35.87;19.00;;;;;;;;;;4979267;28;20852;-70
2023/10/18 17:21:35;;;;;;;32.30;17.30;;;;;;;;;;4979365;28;20396;-70
2023/10/18 17:24:01;;;;;;;33.50;18.13;;;;;;;;;;4979329;28;20510;-69
2023/10/18 17:26:27;;;;;;;32.17;18.70;;;;;;;;;;4979490;28;20479;-70
2023/10/18 17:28:53;;;;;;;35.30;18.13;;;;;;;;;;4979460;28;20495;-67
2023/10/18 17:31:19;;;;;;;35.97;17.33;;;;;;;;;;4979619;28;20434;-67
2023/10/18 17:33:46;;;;;;;32.20;17.17;;;;;;;;;;4979223;28;20400;-68
2023/10/18 17:36:12;;;;;;;36.03;18.10;;;;;;;;;;4979141;28;20463;-68
2023/10/18 17:38:38;;;;;;;36.17;18.60;;;;;;;;;;4979004;28;20411;-68
2023/10/18 17:41:05;;;;;;;27.03;16.17;;;;;;;;;;4977984;28;20420;-67
2023/10/18 17:43:31;;;;;;;39.17;17.97;;;;;;;;;;4979341;28;20404;-68
2023/10/18 17:45:57;;;;;;;32.60;17.57;;;;;;;;;;4977998;28;20439;-68
2023/10/18 17:48:24;;;;;;;32.43;17.07;;;;;;;;;;4978871;28;20419;-67
2023/10/18 17:50:50;;;;;;;31.83;18.57;;;;;;;;;;4978983;28;20919;-67
2023/10/18 17:53:16;;;;;;;33.37;17.43;;;;;;;;;;4978914;28;20416;-67
2023/10/18 17:55:43;;;;;;;37.87;19.57;;;;;;;;;;4978796;28;20493;-67
2023/10/18 17:58:14;;;;;;;44.40;20.40;;;;;;;;;;4978033;28;20416;-67
2023/10/18 18:00:40;;;;;;;38.73;19.97;;;;;;;;;;4976273;28;20486;-67
2023/10/18 18:03:06;;;;;;;40.90;21.00;;;;;;;;;;4975772;28;20876;-67
2023/10/18 18:05:35;;;;;;;37.00;20.57;;;;;;;;;;4974905;28;20487;-67
2023/10/18 18:08:06;;;;;;;38.50;18.70;;;;;;;;;;4969034;28;20455;-68
2023/10/18 18:10:37;;;;;;;36.70;20.77;;;;;;;;;;4975079;28;20482;-68
2023/10/18 18:13:05;;;;;;;40.80;20.63;;;;;;;;;;4951525;28;20440;-68
2023/10/18 18:15:31;;;;;;;36.87;19.47;;;;;;;;;;4975114;28;21012;-69
2023/10/18 18:18:01;;;;;;;44.63;22.07;;;;;;;;;;4959405;28;20420;-68
2023/10/18 18:20:28;;;;;;;44.93;24.53;;;;;;;;;;4960038;28;20412;-68
2023/10/18 18:22:54;;;;;;;52.00;24.50;;;;;;;;;;4975871;28;20454;-68
2023/10/18 18:25:20;;;;;;;48.80;22.80;;;;;;;;;;4975495;28;20486;-69
2023/10/18 18:27:47;;;;;;;46.30;22.40;;;;;;;;;;4975592;28;20455;-69
2023/10/18 18:30:13;;;;;;;43.10;23.43;;;;;;;;;;4975490;28;20423;-69
2023/10/18 18:32:40;;;;;;;55.87;24.97;;;;;;;;;;4966115;28;20544;-69
2023/10/18 18:35:06;;;;;;;43.67;22.47;;;;;;;;;;4971339;28;20495;-67
2023/10/18 18:37:33;;;;;;;47.77;23.90;;;;;;;;;;4971627;28;20432;-67
2023/10/18 18:39:59;;;;;;;46.23;23.87;;;;;;;;;;4965104;28;20468;-67
2023/10/18 18:42:25;;;;;;;51.53;24.07;;;;;;;;;;4956337;28;20843;-66
2023/10/18 18:44:51;;;;;;;43.53;22.37;;;;;;;;;;4967045;28;20531;-67
2023/10/18 18:47:17;;;;;;;48.23;21.20;;;;;;;;;;4962354;28;20408;-67
2023/10/18 18:49:45;;;;;;;43.93;20.90;;;;;;;;;;4957058;28;20917;-66
2023/10/18 18:52:11;;;;;;;42.93;21.87;;;;;;;;;;4959185;28;20428;-67
2023/10/18 18:54:37;;;;;;;48.27;24.00;;;;;;;;;;4955314;28;20480;-67
2023/10/18 18:57:03;;;;;;;47.93;22.40;;;;;;;;;;4963941;28;20464;-67
2023/10/18 18:59:30;;;;;;;51.07;22.20;;;;;;;;;;4956030;28;20426;-67
2023/10/18 19:01:56;;;;;;;42.20;22.37;;;;;;;;;;4955929;28;20416;-67
2023/10/18 19:04:22;;;;;;;42.47;21.57;;;;;;;;;;4955673;28;20951;-67
2023/10/18 19:06:48;;;;;;;42.37;22.30;;;;;;;;;;4965746;28;20423;-67
2023/10/18 19:09:14;;;;;;;45.63;23.30;;;;;;;;;;4962055;28;20433;-67
2023/10/18 19:11:42;;;;;;;46.97;24.13;;;;;;;;;;4954954;28;20423;-68
2023/10/18 19:14:08;;;;;;;45.53;25.00;;;;;;;;;;4955779;28;20452;-67
2023/10/18 19:16:34;;;;;;;52.40;27.30;;;;;;;;;;4955818;28;20480;-67
2023/10/18 19:19:00;;;;;;;55.80;25.67;;;;;;;;;;4955726;28;20409;-67
2023/10/18 19:21:26;;;;;;;52.73;25.83;;;;;;;;;;4963794;28;20868;-67
2023/10/18 19:23:53;;;;;;;56.97;27.13;;;;;;;;;;4970972;28;20420;-67
2023/10/18 19:26:19;;;;;;;48.50;23.77;;;;;;;;;;4955319;28;20421;-67
2023/10/18 19:28:45;;;;;;;49.70;27.63;;;;;;;;;;4962505;28;20415;-67
2023/10/18 19:31:15;;;;;;;42.87;23.50;;;;;;;;;;4970096;28;20443;-67
2023/10/18 19:33:51;;;;;;;45.97;24.20;;;;;;;;;;4963726;28;20451;-68
2023/10/18 19:36:17;;;;;;;65.47;30.00;;;;;;;;;;4958274;28;20959;-68
2023/10/18 19:38:43;;;;;;;61.47;29.70;;;;;;;;;;4960623;28;20436;-68
2023/10/18 19:41:09;;;;;;;54.50;28.97;;;;;;;;;;4959779;28;20491;-67
2023/10/18 19:43:36;;;;;;;60.17;29.80;;;;;;;;;;4960840;28;20553;-68
2023/10/18 19:46:04;;;;;;;63.23;30.00;;;;;;;;;;4956798;28;20429;-68
2023/10/18 19:48:30;;;;;;;55.20;27.80;;;;;;;;;;4960558;28;20432;-69
2023/10/18 19:50:56;;;;;;;53.47;25.63;;;;;;;;;;4971274;28;20428;-69
2023/10/18 19:53:23;;;;;;;56.07;28.10;;;;;;;;;;4962844;28;20436;-69
2023/10/18 19:55:49;;;;;;;46.57;24.93;;;;;;;;;;4973605;28;20627;-69
2023/10/18 19:58:16;;;;;;;56.37;27.17;;;;;;;;;;4973824;28;20423;-68